Time;durP1;ratioP1;P1;durP2;ratioP2;P2;SDS_P1;SDS_P2;PMS_P1;PMS_P2;Temp;Humidity;BMP_temperature;BMP_pressure;BME280_temperature;BME280_humidity;BME280_pressure;Samples;Min_cycle;Max_cycle;Signal;HPM_P1;HPM_P2
2022/03/10 00:14:33;;;;;;;7.00;4.20;;;-2.90;96.30;;;;;;5524033;23;20606;-78
2022/03/10 00:16:59;;;;;;;7.40;4.10;;;-2.80;96.30;;;;;;4919713;29;20448;-79
2022/03/10 00:19:24;;;;;;;7.93;4.80;;;-2.90;96.30;;;;;;4919105;29;20601;-79
2022/03/10 00:21:50;;;;;;;6.97;4.60;;;-3.10;96.30;;;;;;4937460;29;20184;-77
2022/03/10 00:24:18;;;;;;;5.27;3.57;;;-3.30;96.30;;;;;;4919411;29;20210;-79
2022/03/10 00:26:44;;;;;;;7.03;4.40;;;-3.50;96.30;;;;;;4937031;29;20868;-79
2022/03/10 00:29:10;;;;;;;7.80;4.30;;;-3.40;96.30;;;;;;4943720;29;20416;-78
2022/03/10 00:31:36;;;;;;;9.73;4.53;;;-3.40;96.30;;;;;;4945667;29;20518;-79
2022/03/10 05:00:43;;;;;;;6.27;4.67;;;-4.70;96.30;;;;;;5791107;23;20991;-79
2022/03/10 05:03:09;;;;;;;9.47;5.13;;;-4.60;96.30;;;;;;4915731;29;20436;-76
2022/03/10 05:05:34;;;;;;;6.80;4.77;;;-4.60;96.30;;;;;;4918889;29;20188;-79
2022/03/10 05:08:00;;;;;;;9.37;5.30;;;-4.60;96.30;;;;;;4903020;29;20245;-80
2022/03/10 05:10:25;;;;;;;10.00;4.60;;;-4.50;96.30;;;;;;4904183;29;20177;-78
2022/03/10 05:12:54;;;;;;;8.20;4.40;;;-4.70;96.30;;;;;;4921313;29;20214;-78
2022/03/10 05:15:26;;;;;;;11.17;5.00;;;-4.80;96.30;;;;;;4929881;29;20180;-78
2022/03/10 05:17:52;;;;;;;6.27;4.53;;;-5.00;96.30;;;;;;4901236;29;20425;-78
2022/03/10 05:20:18;;;;;;;9.77;5.37;;;-5.10;96.30;;;;;;4910231;29;20432;-79
2022/03/10 05:22:48;;;;;;;6.40;5.33;;;-5.10;96.30;;;;;;4906314;29;20182;-78
2022/03/10 05:25:15;;;;;;;7.40;4.90;;;-5.10;96.30;;;;;;4928938;29;20427;-78
2022/03/10 05:27:42;;;;;;;7.57;6.43;;;-5.30;96.30;;;;;;4932154;29;20415;-79
2022/03/10 05:30:08;;;;;;;8.60;5.67;;;-5.30;96.30;;;;;;4938506;29;20478;-79
2022/03/10 05:32:34;;;;;;;11.10;6.90;;;-5.40;96.30;;;;;;4916551;29;20467;-78
2022/03/10 05:35:00;;;;;;;7.30;5.40;;;-5.30;96.30;;;;;;4903048;29;20420;-79
2022/03/10 05:37:27;;;;;;;9.70;5.17;;;-5.40;96.30;;;;;;4901280;29;20184;-77
2022/03/10 05:39:52;;;;;;;7.73;5.57;;;-5.40;96.30;;;;;;4934516;29;20510;-79
2022/03/10 05:42:18;;;;;;;11.57;5.50;;;-5.40;96.30;;;;;;4920410;29;20534;-79
2022/03/10 05:44:43;;;;;;;10.70;4.97;;;-5.10;96.30;;;;;;4938082;29;20255;-79
2022/03/10 05:47:09;;;;;;;17.27;9.43;;;-4.60;96.30;;;;;;4937771;29;20191;-79
2022/03/10 05:49:35;;;;;;;16.90;10.00;;;-3.80;96.30;;;;;;4937137;29;20209;-79
2022/03/10 05:52:01;;;;;;;14.03;9.10;;;-2.90;96.30;;;;;;4937885;29;20471;-79
2022/03/10 05:54:26;;;;;;;12.97;9.20;;;-2.00;96.30;;;;;;4921089;29;20796;-81
2022/03/10 05:56:52;;;;;;;16.00;10.90;;;-1.10;96.30;;;;;;4921295;29;20186;-80
2022/03/10 05:59:19;;;;;;;23.27;10.80;;;-0.20;96.30;;;;;;4921227;29;20176;-80
2022/03/10 06:01:45;;;;;;;17.27;10.80;;;0.50;96.30;;;;;;4922216;29;20239;-81
2022/03/10 06:04:11;;;;;;;14.90;9.50;;;1.20;96.30;;;;;;4939212;29;20412;-80
2022/03/10 06:06:36;;;;;;;14.47;8.00;;;2.40;96.30;;;;;;4922311;29;20467;-81
2022/03/10 06:09:02;;;;;;;11.07;7.00;;;3.60;96.30;;;;;;4921419;29;20172;-81
2022/03/10 06:11:27;;;;;;;8.70;6.50;;;4.70;96.30;;;;;;4921981;29;20231;-81
2022/03/10 06:13:54;;;;;;;12.10;6.17;;;5.40;96.30;;;;;;4940108;29;20200;-81
2022/03/10 06:16:19;;;;;;;10.40;6.33;;;6.10;95.30;;;;;;4941455;29;20191;-81
2022/03/10 06:18:45;;;;;;;8.20;5.33;;;6.40;92.20;;;;;;4937979;29;20932;-80
2022/03/10 06:21:10;;;;;;;8.03;5.10;;;6.60;91.20;;;;;;4933995;29;20204;-80
2022/03/10 06:23:36;;;;;;;6.80;5.30;;;6.50;90.60;;;;;;4909723;29;20180;-80
2022/03/10 06:26:02;;;;;;;6.87;5.03;;;6.50;89.60;;;;;;4931204;29;20675;-81
2022/03/10 06:28:27;;;;;;;17.73;5.03;;;6.50;90.00;;;;;;4928826;29;20184;-82
2022/03/10 06:30:52;;;;;;;10.23;6.47;;;5.60;91.30;;;;;;4937314;29;20262;-80
2022/03/10 06:33:18;;;;;;;11.83;8.23;;;6.30;90.50;;;;;;4937798;29;20199;-81
2022/03/10 06:35:44;;;;;;;10.23;6.10;;;7.20;88.30;;;;;;4937760;29;20171;-79
2022/03/10 06:38:09;;;;;;;10.30;5.90;;;6.90;87.10;;;;;;4919558;29;20649;-80
2022/03/10 06:40:35;;;;;;;7.83;6.50;;;6.50;89.70;;;;;;4919254;29;20720;-79
2022/03/10 06:43:00;;;;;;;7.60;5.80;;;6.20;89.90;;;;;;4925004;29;20188;-80
2022/03/10 06:45:26;;;;;;;5.00;4.50;;;7.20;89.80;;;;;;4937531;29;20183;-81
2022/03/10 06:47:51;;;;;;;8.27;5.30;;;7.90;85.10;;;;;;4930645;29;20187;-81
2022/03/10 06:50:17;;;;;;;4.87;4.20;;;7.40;86.40;;;;;;4921844;29;20232;-80
2022/03/10 06:52:42;;;;;;;6.87;5.40;;;8.10;87.70;;;;;;4929757;29;20208;-81
2022/03/10 06:55:08;;;;;;;6.17;4.50;;;8.70;81.80;;;;;;4931388;29;20184;-79
2022/03/10 06:57:34;;;;;;;6.70;5.17;;;9.40;81.70;;;;;;4938074;29;20255;-80
2022/03/10 07:00:00;;;;;;;9.10;5.00;;;10.30;78.20;;;;;;4922079;29;20265;-80
2022/03/10 07:15:22;;;;;;;8.20;6.20;;;11.40;74.90;;;;;;5035943;23;20483;-78
2022/03/10 07:17:49;;;;;;;10.00;7.03;;;12.00;74.60;;;;;;4917253;29;20416;-83
2022/03/10 07:20:14;;;;;;;10.23;6.23;;;12.90;72.30;;;;;;4928980;29;20255;-79
2022/03/10 07:22:40;;;;;;;7.27;5.60;;;13.50;70.40;;;;;;4921237;29;20993;-79
2022/03/10 07:25:09;;;;;;;11.70;9.73;;;13.60;70.00;;;;;;4929172;29;20176;-80
2022/03/10 07:27:34;;;;;;;18.50;11.67;;;14.00;68.40;;;;;;4925798;29;20411;-80
2022/03/10 07:30:00;;;;;;;11.67;8.50;;;13.30;68.30;;;;;;4935041;29;20411;-79
2022/03/10 07:32:26;;;;;;;17.37;11.90;;;13.20;68.70;;;;;;4917861;29;20219;-78
2022/03/10 07:34:52;;;;;;;11.67;8.83;;;12.70;70.20;;;;;;4917935;29;20209;-79
2022/03/10 07:37:17;;;;;;;12.93;7.10;;;12.50;69.60;;;;;;4935056;29;20179;-80
2022/03/10 07:39:43;;;;;;;8.43;6.53;;;12.90;70.30;;;;;;4928536;29;20228;-80
2022/03/10 07:42:09;;;;;;;10.30;7.00;;;12.70;70.00;;;;;;4917841;29;20432;-79
2022/03/10 07:44:35;;;;;;;12.40;8.77;;;12.50;70.50;;;;;;4917866;29;20666;-80
2022/03/10 07:47:00;;;;;;;11.00;7.43;;;11.60;72.40;;;;;;4917705;29;20316;-80
2022/03/10 07:49:26;;;;;;;12.40;7.23;;;9.80;74.10;;;;;;4917295;29;20184;-80
2022/03/10 07:51:51;;;;;;;10.23;6.60;;;8.00;80.80;;;;;;4917363;29;20196;-79
2022/03/10 07:54:17;;;;;;;11.60;7.00;;;7.40;82.40;;;;;;4897226;29;20180;-80
2022/03/10 07:56:43;;;;;;;11.20;6.13;;;6.60;84.50;;;;;;4898996;29;20177;-79
2022/03/10 07:59:08;;;;;;;12.83;7.00;;;5.90;87.30;;;;;;4884162;29;20186;-79
2022/03/10 08:01:34;;;;;;;9.30;5.93;;;5.60;90.00;;;;;;4901837;29;20225;-78
2022/03/10 08:03:59;;;;;;;8.50;6.33;;;5.50;91.50;;;;;;4883392;29;20177;-78
2022/03/10 08:06:26;;;;;;;13.00;7.00;;;5.40;92.10;;;;;;4900980;29;20671;-79
2022/03/10 08:08:52;;;;;;;11.30;6.80;;;5.20;92.90;;;;;;4902295;29;20704;-77
2022/03/10 08:11:18;;;;;;;15.37;8.50;;;5.00;94.40;;;;;;4883055;29;20446;-79
2022/03/10 08:13:44;;;;;;;13.87;7.50;;;5.20;94.50;;;;;;4885842;29;20223;-78
2022/03/10 08:16:10;;;;;;;11.97;6.20;;;5.10;94.90;;;;;;4909928;29;20439;-79
2022/03/10 08:18:36;;;;;;;10.27;6.80;;;5.10;94.50;;;;;;4902312;29;20457;-78
2022/03/10 08:21:01;;;;;;;12.40;6.37;;;5.00;94.40;;;;;;4900422;29;20509;-79
2022/03/10 08:23:27;;;;;;;8.70;5.57;;;4.90;95.00;;;;;;4901355;29;20204;-79
2022/03/10 08:25:53;;;;;;;12.40;6.47;;;4.80;95.90;;;;;;4920683;29;20192;-79
2022/03/10 08:28:19;;;;;;;12.70;7.30;;;4.70;96.30;;;;;;4920620;29;20666;-78
2022/03/10 08:30:44;;;;;;;11.17;6.40;;;4.50;96.00;;;;;;4899224;29;20216;-79
2022/03/10 08:33:10;;;;;;;8.47;5.60;;;4.50;96.30;;;;;;4883102;29;21169;-79
2022/03/10 08:35:35;;;;;;;14.07;7.67;;;4.40;96.30;;;;;;4883848;29;20182;-79
2022/03/10 08:38:01;;;;;;;11.33;5.83;;;4.50;96.30;;;;;;4899084;29;20185;-77
2022/03/10 08:40:28;;;;;;;9.33;5.90;;;4.70;96.30;;;;;;4918062;29;20578;-78
2022/03/10 08:42:54;;;;;;;12.57;6.93;;;4.70;96.30;;;;;;4900189;29;20228;-79
2022/03/10 08:45:21;;;;;;;8.97;6.27;;;4.70;95.50;;;;;;4917583;29;20475;-79
2022/03/10 08:47:47;;;;;;;10.67;5.97;;;4.60;95.60;;;;;;4899177;29;20515;-78
2022/03/10 08:50:12;;;;;;;10.67;6.40;;;4.70;96.30;;;;;;4915571;29;20975;-79
2022/03/10 08:52:39;;;;;;;14.30;8.00;;;4.90;96.30;;;;;;4919351;29;20206;-78
2022/03/10 08:55:06;;;;;;;10.77;5.87;;;4.90;96.20;;;;;;4906439;29;20212;-77
2022/03/10 08:57:36;;;;;;;12.20;6.80;;;5.00;95.20;;;;;;4905330;29;20931;-77
2022/03/10 09:00:02;;;;;;;11.00;5.77;;;5.20;95.40;;;;;;4920912;29;20466;-77
2022/03/10 09:02:28;;;;;;;10.87;6.37;;;5.90;93.40;;;;;;4903069;29;20819;-78
2022/03/10 09:04:54;;;;;;;11.50;6.50;;;7.00;90.00;;;;;;4902525;29;20421;-78
2022/03/10 09:07:19;;;;;;;14.10;5.70;;;8.00;87.90;;;;;;4918200;29;20515;-79
2022/03/10 09:09:45;;;;;;;9.63;6.17;;;9.20;83.30;;;;;;4921087;29;20180;-78
2022/03/10 09:12:10;;;;;;;11.63;7.20;;;10.10;79.10;;;;;;4900253;29;20209;-78
2022/03/10 09:14:36;;;;;;;9.50;6.30;;;9.80;79.20;;;;;;4919323;29;20183;-77
2022/03/10 09:17:01;;;;;;;11.37;7.23;;;10.20;78.70;;;;;;4920009;29;20220;-78
2022/03/10 09:19:27;;;;;;;9.87;6.60;;;10.70;76.80;;;;;;4919640;29;20592;-78
2022/03/10 09:21:52;;;;;;;11.93;6.53;;;10.60;76.10;;;;;;4899900;29;20197;-78
2022/03/10 09:24:18;;;;;;;11.30;6.43;;;10.10;78.00;;;;;;4900603;29;20559;-78
2022/03/10 09:26:43;;;;;;;12.30;7.00;;;10.20;76.60;;;;;;4900320;29;20206;-78
2022/03/10 09:29:11;;;;;;;13.07;6.00;;;10.50;76.70;;;;;;4900422;29;20584;-79
2022/03/10 09:31:37;;;;;;;11.43;6.80;;;11.00;74.80;;;;;;4920666;29;20443;-78
2022/03/10 09:34:04;;;;;;;7.70;5.40;;;11.10;74.10;;;;;;4900796;29;20492;-79
2022/03/10 09:36:30;;;;;;;10.27;6.40;;;11.30;73.10;;;;;;4902373;29;20173;-78
2022/03/10 09:38:55;;;;;;;9.70;5.53;;;11.20;73.60;;;;;;4909313;29;20931;-78
2022/03/10 09:41:21;;;;;;;11.37;6.87;;;11.50;72.50;;;;;;4882001;29;20438;-79
2022/03/10 09:43:48;;;;;;;11.57;6.77;;;11.80;72.30;;;;;;4901296;29;20247;-79
2022/03/10 09:46:14;;;;;;;13.77;6.90;;;11.80;72.20;;;;;;4901095;29;20177;-79
2022/03/10 09:48:40;;;;;;;12.03;6.37;;;12.10;73.40;;;;;;4900925;29;20440;-78
2022/03/10 09:51:06;;;;;;;7.60;5.10;;;12.60;70.90;;;;;;4881509;29;20229;-79
2022/03/10 09:53:34;;;;;;;10.47;6.87;;;12.20;70.10;;;;;;4899877;29;20204;-78
2022/03/10 09:56:01;;;;;;;11.60;6.50;;;11.90;70.70;;;;;;4900670;29;20793;-78
2022/03/10 09:58:27;;;;;;;8.23;4.70;;;11.40;73.20;;;;;;4900509;29;20441;-79
2022/03/10 10:01:03;;;;;;;11.90;6.90;;;11.40;72.40;;;;;;4879247;29;20473;-79
2022/03/10 10:03:29;;;;;;;12.23;6.40;;;11.20;72.00;;;;;;4897287;29;20183;-79
2022/03/10 10:05:59;;;;;;;11.23;6.40;;;11.00;73.50;;;;;;4898993;29;20425;-79
2022/03/10 10:08:25;;;;;;;14.93;7.20;;;11.40;72.50;;;;;;4879522;29;20291;-78
2022/03/10 10:10:53;;;;;;;8.77;5.93;;;11.60;72.10;;;;;;4898785;29;20438;-78
2022/03/10 10:13:30;;;;;;;13.10;7.07;;;11.50;72.10;;;;;;4898927;29;20990;-78
2022/03/10 10:16:19;;;;;;;9.87;7.10;;;11.80;71.90;;;;;;4878891;29;20497;-78
2022/03/10 10:18:45;;;;;;;9.30;6.07;;;11.50;71.70;;;;;;4877845;29;20510;-79
2022/03/10 10:21:12;;;;;;;10.80;6.97;;;11.70;71.50;;;;;;4878674;29;20466;-78
2022/03/10 10:23:39;;;;;;;11.03;5.73;;;11.40;71.40;;;;;;4897988;29;20597;-78
2022/03/10 10:26:07;;;;;;;6.67;5.00;;;11.10;72.60;;;;;;4898590;29;20409;-79
2022/03/10 10:28:41;;;;;;;12.60;6.40;;;11.00;73.00;;;;;;4880444;29;20434;-79
2022/03/10 10:31:12;;;;;;;11.33;6.47;;;10.90;72.90;;;;;;4898373;29;20943;-78
2022/03/10 10:33:59;;;;;;;7.90;5.30;;;11.10;73.40;;;;;;4898457;29;20887;-79
2022/03/10 10:36:27;;;;;;;10.87;6.73;;;11.10;72.30;;;;;;4898334;29;20457;-77
2022/03/10 10:39:05;;;;;;;8.10;5.60;;;10.80;73.30;;;;;;4898029;29;20409;-78
2022/03/10 10:41:32;;;;;;;9.60;5.30;;;10.90;72.80;;;;;;4898218;29;20809;-76
2022/03/10 10:44:04;;;;;;;7.60;5.60;;;10.60;73.30;;;;;;4898176;29;20417;-78
2022/03/10 10:46:39;;;;;;;10.83;6.20;;;10.60;73.80;;;;;;4879670;29;20454;-77
2022/03/10 10:49:08;;;;;;;10.00;5.83;;;10.00;74.60;;;;;;4877757;29;20486;-78
2022/03/10 10:51:34;;;;;;;10.20;6.10;;;10.50;74.20;;;;;;4896493;29;20445;-77
2022/03/10 10:54:05;;;;;;;9.70;5.40;;;10.80;73.70;;;;;;4897744;29;20540;-77
2022/03/10 10:56:33;;;;;;;9.20;5.87;;;10.80;73.90;;;;;;4897760;29;20745;-78
2022/03/10 10:59:00;;;;;;;8.83;6.20;;;10.80;73.70;;;;;;4877525;29;20460;-77
2022/03/10 11:01:36;;;;;;;8.93;5.50;;;11.00;72.80;;;;;;4895445;29;20452;-77
2022/03/10 11:04:04;;;;;;;9.03;4.83;;;10.50;73.30;;;;;;4901895;29;20445;-76
2022/03/10 11:06:31;;;;;;;8.90;4.70;;;10.10;74.00;;;;;;4906199;29;20428;-77
2022/03/10 11:08:57;;;;;;;7.90;5.80;;;10.00;74.30;;;;;;4912006;29;20420;-78
2022/03/10 11:11:23;;;;;;;9.53;5.13;;;9.90;75.30;;;;;;4894449;29;20458;-77
2022/03/10 11:13:48;;;;;;;8.20;5.10;;;9.90;75.60;;;;;;4878156;29;20214;-78
2022/03/10 11:16:16;;;;;;;14.43;5.20;;;10.20;74.80;;;;;;4877693;29;20505;-79
2022/03/10 11:18:45;;;;;;;6.67;5.20;;;10.20;74.70;;;;;;4897457;29;20197;-78
2022/03/10 11:21:45;;;;;;;12.10;5.93;;;10.20;76.20;;;;;;4897956;29;20813;-77
2022/03/10 11:24:51;;;;;;;10.87;5.70;;;10.20;76.40;;;;;;4897574;29;20417;-77
2022/03/10 11:27:20;;;;;;;10.27;6.37;;;10.50;75.80;;;;;;4893356;29;20519;-76
2022/03/10 11:29:49;;;;;;;10.40;5.17;;;10.40;74.40;;;;;;4895878;29;20436;-78
2022/03/10 11:32:15;;;;;;;12.07;6.57;;;10.30;75.00;;;;;;4908835;29;21259;-77
2022/03/10 11:34:52;;;;;;;10.97;6.67;;;10.40;75.90;;;;;;4908948;29;20456;-77
2022/03/10 11:37:47;;;;;;;9.13;5.73;;;10.60;74.90;;;;;;4912206;29;20853;-77
2022/03/10 11:40:15;;;;;;;10.77;5.60;;;10.40;75.10;;;;;;4915885;29;20396;-76
2022/03/10 11:42:42;;;;;;;8.60;5.77;;;10.30;75.50;;;;;;4914044;29;20459;-76
2022/03/10 11:45:11;;;;;;;12.70;6.13;;;10.20;76.80;;;;;;4915013;29;20408;-78
2022/03/10 11:47:38;;;;;;;7.13;4.80;;;10.50;76.60;;;;;;4898102;29;20411;-76
2022/03/10 11:50:22;;;;;;;12.40;6.00;;;10.60;75.20;;;;;;4908028;29;20489;-76
2022/03/10 11:53:04;;;;;;;13.10;5.60;;;10.50;74.40;;;;;;4900340;29;20466;-77
2022/03/10 11:55:55;;;;;;;11.77;6.47;;;10.40;74.80;;;;;;4913146;29;20404;-76
2022/03/10 11:58:31;;;;;;;9.63;4.77;;;10.50;76.30;;;;;;4915705;29;20464;-76
2022/03/10 12:00:57;;;;;;;7.00;5.17;;;9.80;76.00;;;;;;4883445;29;20445;-77
2022/03/10 12:03:38;;;;;;;7.60;5.60;;;10.10;75.90;;;;;;4905227;29;20418;-76
2022/03/10 12:06:08;;;;;;;8.03;4.60;;;10.50;75.20;;;;;;4908765;29;20424;-76
2022/03/10 12:08:35;;;;;;;6.93;5.23;;;10.70;75.60;;;;;;4894208;29;20425;-76
2022/03/10 12:11:03;;;;;;;10.80;5.53;;;10.50;73.90;;;;;;4913322;29;20495;-77
2022/03/10 12:13:36;;;;;;;16.03;5.70;;;10.20;74.50;;;;;;4912747;29;21777;-78
2022/03/10 12:16:07;;;;;;;11.50;6.10;;;10.10;75.40;;;;;;4915254;29;20926;-79
2022/03/10 12:18:44;;;;;;;10.77;6.60;;;9.80;76.90;;;;;;4893899;29;20971;-78
2022/03/10 12:21:17;;;;;;;10.43;6.60;;;10.00;76.40;;;;;;4886229;29;20956;-80
2022/03/10 12:23:59;;;;;;;11.10;6.80;;;10.10;76.00;;;;;;4881372;29;20440;-80
2022/03/10 12:26:28;;;;;;;10.17;7.03;;;10.40;75.80;;;;;;4912693;29;20427;-79
2022/03/10 12:28:59;;;;;;;8.50;5.77;;;10.60;75.90;;;;;;4915845;29;21061;-80
2022/03/10 12:31:33;;;;;;;9.70;6.47;;;10.50;74.20;;;;;;4893381;29;20441;-79
2022/03/10 12:34:01;;;;;;;12.10;6.50;;;10.20;75.20;;;;;;4913474;29;20471;-79
2022/03/10 12:36:39;;;;;;;11.47;6.80;;;10.10;76.50;;;;;;4914358;29;20413;-81
2022/03/10 12:39:17;;;;;;;14.63;6.57;;;10.40;74.90;;;;;;4889373;29;20554;-79
2022/03/10 12:41:50;;;;;;;8.50;5.80;;;10.20;75.40;;;;;;4887760;29;20452;-80
2022/03/10 12:44:21;;;;;;;13.10;6.00;;;10.20;74.70;;;;;;4922498;29;20421;-79
2022/03/10 12:46:48;;;;;;;11.33;6.23;;;10.50;74.20;;;;;;4913487;29;20425;-80
2022/03/10 12:49:39;;;;;;;15.43;6.20;;;10.70;73.30;;;;;;4898807;29;20425;-79
2022/03/10 12:52:12;;;;;;;8.77;5.97;;;10.30;73.70;;;;;;4920074;29;20536;-80
2022/03/10 12:54:39;;;;;;;18.37;7.47;;;10.20;73.60;;;;;;4901084;29;20424;-80
2022/03/10 12:57:07;;;;;;;15.53;7.40;;;10.10;74.10;;;;;;4913223;29;20420;-80
2022/03/10 12:59:37;;;;;;;11.93;7.63;;;10.10;73.80;;;;;;4894816;29;20931;-79
2022/03/10 13:02:17;;;;;;;12.63;6.70;;;9.80;74.10;;;;;;4914929;29;20807;-80
2022/03/10 13:04:47;;;;;;;12.97;6.83;;;9.80;73.50;;;;;;4914930;29;20572;-76
2022/03/10 13:07:16;;;;;;;10.87;6.10;;;9.80;73.60;;;;;;4887818;29;20478;-79
2022/03/10 13:10:10;;;;;;;18.03;7.60;;;9.80;73.40;;;;;;4914777;29;20450;-79
2022/03/10 13:12:38;;;;;;;12.53;7.50;;;9.90;74.40;;;;;;4898718;29;20545;-80
2022/03/10 13:15:17;;;;;;;32.33;7.50;;;10.20;74.00;;;;;;4919506;29;20794;-80
2022/03/10 13:17:44;;;;;;;11.60;7.00;;;10.20;73.60;;;;;;4921579;29;20454;-80
2022/03/10 13:20:12;;;;;;;13.63;8.27;;;10.30;73.40;;;;;;4899615;29;21011;-80
2022/03/10 13:22:47;;;;;;;13.23;7.50;;;10.20;75.00;;;;;;4906508;29;20434;-80
2022/03/10 13:25:17;;;;;;;14.73;8.60;;;10.40;74.40;;;;;;4933461;29;20502;-79
2022/03/10 13:27:45;;;;;;;16.80;8.60;;;10.40;75.40;;;;;;4916696;29;20436;-78
2022/03/10 13:30:18;;;;;;;10.60;7.17;;;10.00;75.20;;;;;;4904332;29;20432;-79
2022/03/10 13:32:47;;;;;;;10.50;6.97;;;10.20;74.90;;;;;;4906158;29;20539;-78
2022/03/10 13:35:13;;;;;;;10.77;7.47;;;10.10;74.60;;;;;;4905062;29;20421;-79
2022/03/10 13:37:41;;;;;;;10.87;7.90;;;10.00;75.20;;;;;;4904706;29;20757;-79
2022/03/10 13:40:07;;;;;;;13.53;8.20;;;9.90;75.60;;;;;;4901633;29;20918;-79
2022/03/10 13:42:33;;;;;;;10.03;6.60;;;9.90;75.20;;;;;;4903737;29;20509;-79
2022/03/10 13:45:10;;;;;;;10.07;7.70;;;9.90;75.90;;;;;;4911489;29;20456;-79
2022/03/10 13:47:54;;;;;;;14.33;7.90;;;10.00;75.90;;;;;;4909551;29;20184;-78
2022/03/10 13:50:23;;;;;;;15.30;8.20;;;10.00;75.90;;;;;;4894333;29;20974;-79
2022/03/10 13:53:00;;;;;;;11.40;8.00;;;10.00;76.50;;;;;;4902008;29;20532;-78
2022/03/10 13:55:33;;;;;;;12.33;8.40;;;10.10;77.90;;;;;;4918459;29;20405;-80
2022/03/10 13:58:01;;;;;;;11.90;8.40;;;10.30;76.70;;;;;;4919922;29;20416;-79
2022/03/10 14:00:28;;;;;;;15.83;7.23;;;9.90;77.20;;;;;;4894074;29;20421;-79
2022/03/10 14:02:54;;;;;;;21.57;9.60;;;10.20;77.60;;;;;;4912340;29;20801;-79
2022/03/10 14:05:20;;;;;;;12.77;7.80;;;10.30;76.60;;;;;;4898056;29;20438;-79
2022/03/10 14:08:11;;;;;;;15.60;7.57;;;10.10;76.80;;;;;;4903323;29;20496;-79
2022/03/10 14:10:37;;;;;;;14.70;7.97;;;9.90;76.40;;;;;;4907402;29;20535;-78
2022/03/10 14:13:02;;;;;;;12.20;7.30;;;9.80;76.90;;;;;;4886999;29;20458;-78
2022/03/10 14:15:35;;;;;;;8.10;5.33;;;9.70;78.10;;;;;;4899230;29;20546;-79
2022/03/10 14:18:05;;;;;;;12.20;6.70;;;9.50;76.90;;;;;;4901600;29;20313;-79
2022/03/10 14:20:41;;;;;;;13.80;8.57;;;9.40;77.50;;;;;;4901269;29;20410;-78
2022/03/10 14:23:07;;;;;;;11.80;7.20;;;9.40;78.70;;;;;;4902664;29;20759;-78
2022/03/10 14:26:08;;;;;;;12.20;8.00;;;9.40;79.10;;;;;;4901074;29;20774;-79
2022/03/10 14:28:38;;;;;;;11.60;7.20;;;9.40;78.60;;;;;;4900204;29;20429;-79
2022/03/10 14:31:06;;;;;;;12.70;8.87;;;9.30;77.60;;;;;;4900638;29;20445;-77
2022/03/10 14:33:32;;;;;;;19.73;6.77;;;9.20;78.40;;;;;;4900036;29;20878;-80
2022/03/10 14:35:58;;;;;;;15.43;8.03;;;9.40;78.60;;;;;;4902984;29;20503;-76
2022/03/10 14:38:25;;;;;;;11.77;8.30;;;9.40;79.60;;;;;;4905644;29;20188;-78
2022/03/10 14:40:51;;;;;;;10.93;7.53;;;9.60;78.40;;;;;;4906542;29;20243;-79
2022/03/10 14:43:17;;;;;;;7.93;6.40;;;9.80;79.40;;;;;;4904258;29;20435;-80
2022/03/10 14:45:44;;;;;;;9.57;7.40;;;10.00;77.40;;;;;;4916405;29;20462;-79
2022/03/10 14:48:09;;;;;;;12.60;7.13;;;9.60;77.40;;;;;;4908626;29;20180;-80
2022/03/10 14:50:35;;;;;;;9.73;6.90;;;9.30;79.50;;;;;;4911202;29;20467;-79
2022/03/10 14:53:02;;;;;;;13.53;8.70;;;9.20;81.00;;;;;;4904523;29;20215;-78
2022/03/10 14:55:28;;;;;;;12.40;7.90;;;9.20;81.60;;;;;;4878326;29;20667;-77
2022/03/10 14:57:53;;;;;;;13.90;8.47;;;9.30;81.20;;;;;;4897938;29;20907;-78
2022/03/10 15:00:19;;;;;;;11.50;7.93;;;9.20;80.80;;;;;;4898077;29;20425;-77
2022/03/10 15:02:44;;;;;;;18.87;8.30;;;9.10;81.50;;;;;;4897800;29;20264;-79
2022/03/10 15:05:11;;;;;;;13.07;7.80;;;9.00;81.70;;;;;;4897271;29;20185;-77
2022/03/10 15:07:37;;;;;;;11.90;6.60;;;9.10;82.20;;;;;;4897641;29;20177;-79
2022/03/10 15:10:08;;;;;;;15.80;8.30;;;9.20;81.00;;;;;;4897861;29;20417;-78
2022/03/10 15:12:34;;;;;;;12.03;7.20;;;8.90;82.40;;;;;;4925385;29;20207;-78
2022/03/10 15:14:59;;;;;;;13.93;8.13;;;8.70;83.60;;;;;;4896525;29;20424;-79
2022/03/10 15:17:25;;;;;;;12.80;9.00;;;8.70;83.20;;;;;;4899620;29;20231;-80
2022/03/10 15:19:50;;;;;;;13.50;9.70;;;8.60;84.40;;;;;;4909075;29;20263;-79
2022/03/10 15:22:16;;;;;;;13.60;8.90;;;8.40;85.40;;;;;;4916683;29;20275;-78
2022/03/10 15:24:41;;;;;;;17.63;9.70;;;8.40;84.30;;;;;;4916569;29;20176;-79
2022/03/10 15:27:07;;;;;;;14.53;9.83;;;8.30;83.80;;;;;;4916862;29;20183;-79
2022/03/10 15:29:36;;;;;;;17.70;9.30;;;8.10;85.10;;;;;;4916006;29;20180;-78
2022/03/10 15:32:03;;;;;;;13.00;9.67;;;8.10;85.40;;;;;;4916245;29;20283;-79
2022/03/10 15:34:29;;;;;;;15.60;11.13;;;8.10;85.00;;;;;;4915775;29;20408;-79
2022/03/10 15:36:55;;;;;;;17.20;11.97;;;8.10;85.50;;;;;;4927070;29;20416;-81
2022/03/10 15:39:20;;;;;;;18.13;12.87;;;8.00;86.20;;;;;;4937356;29;20977;-81
2022/03/10 15:41:45;;;;;;;18.63;12.30;;;7.90;85.60;;;;;;4937672;29;20195;-80
2022/03/10 15:44:11;;;;;;;21.40;12.00;;;7.70;86.00;;;;;;4916779;29;20184;-81
2022/03/10 15:46:38;;;;;;;18.70;12.60;;;7.80;86.00;;;;;;4937435;29;20260;-80
2022/03/10 15:49:04;;;;;;;18.93;10.83;;;7.80;86.30;;;;;;4937886;29;20721;-79
2022/03/10 15:51:30;;;;;;;21.10;12.70;;;7.60;87.50;;;;;;4938973;29;20436;-80
2022/03/10 15:53:56;;;;;;;15.53;9.90;;;7.30;88.00;;;;;;4937685;29;20999;-80
2022/03/10 15:56:22;;;;;;;19.20;13.43;;;7.10;89.30;;;;;;4917625;29;20460;-81
2022/03/10 15:58:48;;;;;;;25.33;13.67;;;7.10;89.70;;;;;;4937599;29;20207;-81
2022/03/10 16:01:22;;;;;;;27.20;13.23;;;7.00;89.30;;;;;;4917154;29;20207;-78
2022/03/10 16:03:49;;;;;;;25.93;17.73;;;6.90;89.80;;;;;;4934797;29;20541;-80
2022/03/10 16:06:15;;;;;;;27.53;14.03;;;6.80;90.30;;;;;;4940817;29;20418;-78
2022/03/10 16:08:41;;;;;;;27.43;15.57;;;6.70;90.00;;;;;;4917626;29;20431;-77
2022/03/10 16:11:07;;;;;;;18.30;11.70;;;6.60;89.80;;;;;;4914325;29;20436;-77
2022/03/10 16:13:33;;;;;;;17.20;11.10;;;6.60;89.60;;;;;;4916262;29;20211;-75
2022/03/10 16:16:00;;;;;;;26.10;13.80;;;6.60;89.90;;;;;;4934500;29;20431;-77
2022/03/10 16:18:26;;;;;;;20.60;12.03;;;6.40;91.00;;;;;;4937784;29;20176;-75
2022/03/10 16:20:52;;;;;;;21.93;14.37;;;6.30;91.20;;;;;;4938316;29;20538;-75
2022/03/10 16:23:18;;;;;;;23.83;13.50;;;6.20;91.70;;;;;;4938329;29;20182;-75
2022/03/10 16:25:44;;;;;;;25.63;13.90;;;6.20;91.60;;;;;;4938343;29;20423;-77
2022/03/10 16:28:09;;;;;;;19.90;13.13;;;6.00;92.20;;;;;;4917922;29;20212;-78
2022/03/10 16:30:35;;;;;;;20.27;13.70;;;5.90;92.60;;;;;;4920248;29;20988;-78
2022/03/10 16:33:02;;;;;;;22.00;12.00;;;5.80;93.40;;;;;;4938250;29;20215;-77
2022/03/10 16:35:28;;;;;;;18.63;13.23;;;5.70;93.70;;;;;;4919273;29;20456;-78
2022/03/10 16:37:54;;;;;;;15.93;10.93;;;5.80;92.90;;;;;;4917670;29;20792;-78
2022/03/10 16:40:20;;;;;;;17.00;12.77;;;5.70;93.00;;;;;;4921987;29;20499;-79
2022/03/10 16:42:47;;;;;;;18.33;11.63;;;5.60;93.10;;;;;;4935734;29;20239;-79
2022/03/10 16:45:13;;;;;;;19.33;12.03;;;5.50;93.40;;;;;;4907793;29;20188;-79
2022/03/10 16:47:39;;;;;;;23.43;13.50;;;5.40;93.60;;;;;;4905285;29;20479;-77
2022/03/10 16:50:06;;;;;;;20.50;13.20;;;5.30;94.60;;;;;;4911716;29;20511;-78
2022/03/10 16:52:31;;;;;;;20.73;13.20;;;5.20;94.70;;;;;;4892152;29;20754;-78
2022/03/10 16:54:57;;;;;;;24.23;15.00;;;5.10;94.90;;;;;;4887975;29;20493;-79
2022/03/10 16:57:23;;;;;;;28.10;13.63;;;5.20;94.90;;;;;;4908589;29;20239;-77
2022/03/10 16:59:49;;;;;;;19.57;13.93;;;5.00;95.40;;;;;;4907968;29;20552;-78
2022/03/10 17:02:15;;;;;;;21.23;13.10;;;4.90;95.50;;;;;;4889518;29;20197;-80
2022/03/10 17:04:41;;;;;;;21.97;14.97;;;4.80;96.10;;;;;;4891979;29;20429;-80
2022/03/10 17:07:08;;;;;;;23.83;14.77;;;4.80;96.10;;;;;;4900003;29;20418;-79
2022/03/10 17:09:34;;;;;;;25.20;15.93;;;4.80;96.20;;;;;;4899718;29;20437;-81
2022/03/10 17:12:00;;;;;;;24.20;15.17;;;4.60;96.30;;;;;;4920888;29;20463;-79
2022/03/10 17:14:25;;;;;;;25.87;15.03;;;4.50;96.30;;;;;;4908461;29;20414;-78
2022/03/10 17:16:51;;;;;;;20.60;15.50;;;4.40;96.30;;;;;;4927079;29;20451;-78
2022/03/10 17:19:16;;;;;;;20.80;14.23;;;4.40;96.30;;;;;;4923148;29;20208;-79
2022/03/10 17:21:42;;;;;;;20.77;14.97;;;4.30;96.30;;;;;;4919348;29;20195;-79
2022/03/10 17:24:09;;;;;;;23.93;14.93;;;4.20;96.30;;;;;;4927030;29;20266;-79
2022/03/10 17:26:36;;;;;;;23.20;16.07;;;4.10;96.30;;;;;;4895761;29;20181;-80
2022/03/10 17:29:04;;;;;;;21.77;15.20;;;4.00;96.30;;;;;;4903448;29;20524;-79
2022/03/10 17:31:30;;;;;;;24.30;15.70;;;3.80;96.30;;;;;;4886313;29;20470;-79
2022/03/10 17:33:56;;;;;;;23.53;15.00;;;3.70;96.30;;;;;;4907066;29;20500;-79
2022/03/10 17:36:22;;;;;;;23.93;14.83;;;3.70;96.30;;;;;;4905763;29;20794;-80
2022/03/10 17:38:47;;;;;;;27.73;15.50;;;3.80;96.30;;;;;;4898758;29;20181;-80
2022/03/10 17:41:13;;;;;;;21.23;15.17;;;3.70;96.30;;;;;;4909124;29;20545;-80